Oshawa Airport
CYOO : now visible

Airfield :











YOU CAN JOIN US ON...

 
LOGIN :

Register | Disclaimer

   EN    FR    IT 

 









Legend :    VFR   Marginal VFR   IFR   Intensive IFR   Very Intensive IFR
Visi :
Ceiling :
>= 8 km
>= 3000ft
5 to 8 km
1000 to 3000 ft
1500m to 5 km
500 to 1000 ft
800 to 1500m
200 to 500 ft
< 800m
< 200 ft
Symbols :   Thunderstorms  Fog  Heavy snow  Heavy precipitations  Wind > 20 kt






- Airport Elevation : 459 ft
- IATA code : YOO


CYOO - Oshawa

CURRENT METAR :
  • 250300Z AUTO VRB02KT 9SM CLR 12/07 A3029 RMK SLP260

EXPIRED METARs :
  • 250200Z AUTO VRB02KT 9SM CLR 12/07 A3027 RMK SLP255
  • 250100Z AUTO 05002KT 9SM CLR 14/06 A3025 RMK SLP248

TAF TAF CYOO
Valid from the 25 at 02:00 until the 25 at 14:00 UTC


250140Z 2502/2514 13005KT P6SM SCT130
BECMG 2504/2506 07005KT
BECMG 2512/2514 11008KT RMK FCST BASED ON AUTO OBS. NXT FCST BY 250800Z
CZYZ FIR / North America



MET'MAP, your aeronautical weather chart ! - Copyright ORBIFLY December 2007 - Disclaimer

ORBIFLY MET'MAP TEAM :

Programming & Development : Alexandra Zaïnal
Original concept : Baudouin d'Aumeries
Technical & hardware support : Manuel Goepfert
Assistance : Marc-Olivier Méhu

Contact : metmap@orbifly.com




SOURCES & CREDITS :

   NOAA       Earth
Advisory